Milford, OH (45150)

7:45 AM EDT on August 27, 2014 (GMT -0400)
Day Heights | Change Station
CLOSE
Current Station
Personal Weather Station
Location: Milford, OH
Elevation: 882 ft
Nearby Weather Stations

Elev 882 ft 39.19 °N, 84.21 °W | Updated 14 seconds ago

Partly Cloudy
Partly Cloudy
69.6 °F
Feels Like 69.6 °F
N
0.0
Wind Variable Wind from SE
Gusts 0.0 mph

Today
High -- | Low -- °F
--% Chance of Precip.
Yesterday
High -- | Low -- °F
Precip. -- in
7:01 AM 8:15 PM
Waxing Crescent, 3% visible
Pressure 30.10 in
Visibility 4.0 miles
Clouds Scattered Clouds 7000 ft
Dew Point 68 °F
Humidity 95%
Rainfall 0.00 in
Snow Depth Not available.
UV 0 out of 12
Pollen 10.70 out of 12
Ozone Good
PM2.5 Moderate
Flu Activity Not available.
METAR KI69 271134Z AUTO 00000KT 4SM BR SCT070 21/20 A3010 RMK AO1

More Conditions Fewer Conditions

Pressure 30.10 in
Visibility 4.0 miles
Clouds Scattered Clouds 7000 ft
Dew Point 68 °F
Humidity 95%
Rainfall 0.00 in
Snow Depth Not available.
UV 0 out of 12
Pollen 10.70 out of 12
Ozone Good
PM2.5 Moderate
Flu Activity Not available.
METAR KI69 271134Z AUTO 00000KT 4SM BR SCT070 21/20 A3010 RMK AO1

More Conditions Fewer Conditions

10-Day Weather Forecast

Almanac

Astronomy

Aug. 27, 2014 Rise Set
Actual Time 7:01 AM EDT 8:15 PM EDT
Civil Twilight 6:33 AM EDT 8:42 PM EDT
Nautical Twilight 6:00 AM EDT 9:15 PM EDT
Astronomical Twilight 5:25 AM EDT 9:50 PM EDT
Moon 8:55 AM EDT 9:08 PM EDT
Length of Visible Light 14h 09m
Length of Day
13h 14m
Tomorrow will be 2m 24s shorter.
Waxing Crescent, 3% of the Moon is Illuminated
Today
Waxing Crescent
Sep 2
First Quarter
Sep 8
Full
Sep 15
Last Quarter
Sep 24
New

Today's Extremes

State Highs State Lows

Community

WunderPhotos

Upload Photos

1,747,670 photos uploaded!

Nearby

Air Quality

  Air Quality AQ Index Pollutant
Yesterday Moderate
OZONE
Yesterday Good
PM10
Current Moderate
PM2.5
Current Good
OZONE
Wednesday Moderate
PM2.5
Wednesday Moderate
OZONE

Snow Depth

Station Depth Elevation
No new snow has been reported.

Earthquake Activity

City Distance Mag. Time & Date
No recent earthquake activity has been reported nearby.
Minimum magnitude displayed is 2.5.

Coastal Water Temperatures

Place Temperature
No Stations Reporting

Nearby Weather Stations